Latest Coastal Weather Observations for King Island Airport

IDV60701

Issued at 4:25 am EST Monday 21 April 2014 (issued every 10 minutes, with the page automatically refreshed every 10 minutes)

About coastal observations | Map of coastal stations | Coastal observations for VIC | Marine services | Other Formats
Station Details ID: 098017 Name: KING ISLAND AIRPORT Lat: -39.88 Lon: 143.88 Height: 37.0 m
Data from the previous 72 hours. | See also: Recent months at King Island Airport
Date/Time
EST
Temp

°C
Wind Pressure Rain
since 9am
mm
Weather Cloud Vis
km
Sea
Height
m
Swell
Dir
 
Speed
knots
Gust
knots
hPa Trend Height
m
Period
s
Dir
21/04:00am 11.1 ESE 6 8 1015.9 - 5.4 - Partly cloudy 5 - - - -
21/03:30am 11.1 SE 6 8 1015.8 - 5.2 - Partly cloudy 10 - - - -
21/03:13am 11.2 SE 6 7 1016.0 - 5.2 - Partly cloudy 9 - - - -
21/03:00am 11.3 SE 6 7 1016.4 - 5.2 - Cloudy 5 - - - -
21/02:30am 11.6 SE 3 4 1016.7 - 5.2 - Partly cloudy 5 - - - -
21/02:01am 12.0 E 1 4 1016.6 - 4.8 - Partly cloudy 5 - - - -
21/02:00am 12.0 E 2 4 1016.6 - 4.8 - Partly cloudy 6 - - - -
21/01:30am 12.2 SSE 3 4 1016.6 - 4.8 - Cloudy 10 - - - -
21/01:00am 12.1 SSE 5 7 1016.4 - 4.8 - Cloudy 10 - - - -
21/12:30am 12.0 SSE 4 6 1016.3 - 4.8 - Cloudy 10 - - - -
21/12:00am 12.0 ESE 4 4 1016.5 - 4.8 - Mostly cloudy 10 - - - -
 
Date/Time
EST
Temp

°C
Wind Pressure Rain
since 9am
mm
Weather Cloud Vis
km
Sea
Height
m
Swell
Dir
 
Speed
knots
Gust
knots
hPa Trend Height
m
Period
s
Dir
20/11:30pm 12.1 SE 4 5 1016.5 - 4.8 - Cloudy 10 - - - -
20/11:00pm 11.9 S 5 6 1016.7 - 4.8 - Partly cloudy 10 - - - -
20/10:30pm 12.4 SSE 4 5 1017.1 - 4.8 - Partly cloudy 10 - - - -
20/10:00pm 12.5 S 4 5 1017.0 - 4.8 - Cloudy 9 - - - -
20/09:30pm 12.8 SSE 4 5 1016.6 - 4.8 - Cloudy 10 - - - -
20/09:00pm 13.0 SSE 4 5 1016.6 - 4.8 - Mostly cloudy 9 - - - -
20/08:30pm 13.2 SE 1 4 1016.3 - 4.8 - Cloudy 10 - - - -
20/08:00pm 13.5 SE 3 4 1016.2 - 4.8 - Cloudy 10 - - - -
20/07:30pm 13.7 S 5 7 1016.0 - 4.8 - Partly cloudy 10 - - - -
20/07:00pm 13.6 S 4 7 1015.7 - 4.8 - Partly cloudy 10 - - - -
20/06:30pm 13.6 SW 5 7 1015.3 - 4.8 - Partly cloudy 10 - - - -
20/06:00pm 13.7 SSW 9 12 1014.9 - 4.8 - Cloudy 10 - - - -
20/05:30pm 14.4 SW 12 17 1014.6 - 4.8 - Partly cloudy 10 - - - -
20/05:00pm 14.7 W 11 16 1014.3 - 4.8 - Partly cloudy 10 - - - -
20/04:30pm 14.6 W 13 18 1014.2 - 4.6 - Partly cloudy 10 - - - -
20/04:00pm 15.7 W 15 18 1014.0 - 4.4 - Partly cloudy 10 - - - -
20/03:30pm 16.1 WNW 16 19 1013.9 - 4.4 - Partly cloudy 10 - - - -
20/03:00pm 15.6 W 16 21 1013.7 - 4.4 - Mostly cloudy 10 - - - -
20/02:50pm 15.8 WNW 17 22 1013.7 - 4.4 - Partly cloudy 10 - - - -
20/02:41pm 15.2 W 13 21 1013.7 - 4.4 - Partly cloudy 8 - - - -
20/02:30pm 13.7 W 14 23 1013.8 - 3.8 - Partly cloudy 4 - - - -
20/02:29pm 14.1 W 13 23 1013.8 - 3.0 - Partly cloudy 5 - - - -
20/02:24pm 14.5 W 10 15 1013.6 - 1.4 - Partly cloudy 10 - - - -
20/02:06pm 14.0 WNW 19 30 1013.7 - 1.0 - Partly cloudy 5 - - - -
20/02:03pm 15.4 WNW 19 30 1013.7 - 0.2 - Partly cloudy 10 - - - -
20/02:00pm 15.7 WNW 19 23 1013.6 - 0.2 - Partly cloudy 10 - - - -
20/01:30pm 15.7 WNW 19 25 1013.8 - 0.2 - Partly cloudy 10 - - - -
20/01:03pm 16.0 WNW 19 29 1013.9 - 0.2 - Partly cloudy 10 - - - -
20/01:00pm 16.5 WNW 18 23 1013.9 - 0.2 - Partly cloudy 10 - - - -
20/12:30pm 16.0 WNW 23 30 1014.1 - 0.2 - Partly cloudy 10 - - - -
20/12:00pm 15.1 WNW 19 25 1014.4 - 0.2 - Cloudy 10 - - - -
20/11:30am 15.3 NW 21 26 1014.6 - 0.0 - Partly cloudy 10 - - - -
20/11:00am 15.3 NW 17 21 1014.8 - 0.0 - Partly cloudy 10 - - - -
20/10:41am 13.5 WNW 17 27 1015.0 - 0.0 - Partly cloudy 10 - - - -
20/10:30am 13.6 WNW 21 30 1015.0 - 0.0 - Partly cloudy 10 - - - -
20/10:24am 14.8 WNW 20 30 1014.9 - 0.0 - Partly cloudy 10 - - - -
20/10:00am 15.5 WNW 20 25 1014.9 - 0.0 - Partly cloudy 10 - - - -
20/09:30am 14.8 NW 20 26 1014.9 - 0.0 - Partly cloudy 10 - - - -
20/09:00am 14.6 NW 18 23 1015.0 - 2.0 - Cloudy 10 - - - -
20/08:30am 14.1 WNW 19 23 1014.8 - 2.0 - Partly cloudy 10 - - - -
20/08:00am 13.9 NW 18 24 1014.8 - 2.0 - Partly cloudy 10 - - - -
20/07:30am 13.2 NW 17 20 1014.6 - 2.0 - Partly cloudy 10 - - - -
20/07:00am 12.2 NW 12 17 1014.4 - 2.0 - Partly cloudy 10 - - - -
20/06:30am 11.4 W 14 22 1014.4 - 1.8 - Partly cloudy 9 - - - -
20/06:00am 13.2 NW 15 18 1014.3 - 1.4 - Cloudy 10 - - - -
20/05:30am 12.7 WNW 14 20 1014.3 - 1.4 - Partly cloudy 10 - - - -
20/05:00am 12.9 NW 17 21 1014.2 - 1.4 - Partly cloudy 10 - - - -
20/04:30am 12.6 WNW 12 15 1014.2 - 1.4 - Partly cloudy 10 - - - -
20/04:00am 12.0 NW 13 16 1014.3 - 1.4 - Partly cloudy 10 - - - -
20/03:30am 11.9 WNW 14 17 1014.5 - 1.4 - Partly cloudy 10 - - - -
20/03:00am 12.6 WNW 16 21 1014.5 - 1.4 - Cloudy 10 - - - -
20/02:57am 12.7 WNW 15 21 1014.5 - 1.4 - Partly cloudy 10 - - - -
20/02:30am 11.8 WNW 9 11 1014.7 - 1.4 - Partly cloudy 10 - - - -
20/02:00am 12.0 WNW 10 14 1015.1 - 1.4 - Partly cloudy 10 - - - -
20/01:30am 11.6 WNW 9 12 1015.3 - 1.4 - Partly cloudy 10 - - - -
20/01:00am 11.2 WNW 13 19 1015.5 - 1.4 - Partly cloudy 10 - - - -
20/12:40am 11.0 WNW 17 27 1015.8 - 1.4 - Partly cloudy 10 - - - -
20/12:38am 11.2 W 17 21 1015.8 - 1.4 - Partly cloudy 10 - - - -
20/12:30am 11.2 W 4 6 1015.8 - 1.4 - Partly cloudy 10 - - - -
20/12:00am 11.4 W 10 14 1016.3 - 1.4 - Cloudy 7 - - - -
 
Date/Time
EST
Temp

°C
Wind Pressure Rain
since 9am
mm
Weather Cloud Vis
km
Sea
Height
m
Swell
Dir
 
Speed
knots
Gust
knots
hPa Trend Height
m
Period
s
Dir
19/11:30pm 12.3 WSW 8 10 1016.3 - 1.0 - Partly cloudy 10 - - - -
19/11:00pm 11.8 WNW 8 11 1016.4 - 1.0 - Partly cloudy 10 - - - -
19/10:30pm 11.8 WNW 7 9 1016.8 - 1.0 - Partly cloudy 10 - - - -
19/10:00pm 11.2 W 5 6 1017.1 - 1.0 - Partly cloudy 10 - - - -
19/09:30pm 12.0 NW 9 11 1017.4 - 1.0 - Partly cloudy 10 - - - -
19/09:00pm 12.4 NW 4 11 1017.5 - 1.0 - Cloudy 10 - - - -
19/08:30pm 11.9 NW 6 7 1017.6 - 1.0 - Partly cloudy 10 - - - -
19/08:00pm 12.4 NW 12 17 1017.8 - 1.0 - Cloudy 10 - - - -
19/07:30pm 12.4 W 4 7 1017.7 - 1.0 - Partly cloudy 10 - - - -
19/07:00pm 12.5 WSW 6 7 1017.8 - 1.0 - Cloudy 10 - - - -
19/06:30pm 12.5 WSW 8 10 1017.8 - 1.0 - Cloudy 10 - - - -
19/06:00pm 12.3 WSW 7 9 1017.7 - 1.0 - Mostly cloudy 10 - - - -
19/05:30pm 12.8 WSW 11 15 1017.6 - 1.0 - Partly cloudy 10 - - - -
19/05:00pm 13.2 WSW 9 12 1017.7 - 1.0 - Partly cloudy 10 - - - -
19/04:30pm 13.3 WSW 9 15 1017.8 - 1.0 - Partly cloudy 10 - - - -
19/04:00pm 13.4 WSW 10 16 1018.0 - 1.0 - Partly cloudy 10 - - - -
19/03:30pm 13.0 SSW 9 14 1018.1 - 1.0 - Partly cloudy 10 - - - -
19/03:00pm 13.6 SSW 9 13 1018.2 - 1.0 - Cloudy 10 - - - -
19/02:30pm 14.0 SW 11 15 1018.2 - 1.0 - Partly cloudy 10 - - - -
19/02:00pm 12.8 W 14 18 1018.4 - 1.0 - Partly cloudy 10 - - - -
19/01:41pm 11.4 WNW 7 10 1018.6 - 1.0 - Partly cloudy 8 - - - -
19/01:30pm 11.6 W 11 16 1018.8 - 0.8 - Partly cloudy 5 - - - -
19/01:26pm 11.9 W 12 18 1018.9 - 0.8 - Partly cloudy 5 - - - -
19/01:00pm 13.4 WNW 13 17 1018.9 - 0.8 - Cloudy 10 - - - -
19/12:30pm 13.3 W 12 16 1019.3 - 0.8 - Partly cloudy 10 - - - -
19/12:00pm 12.6 WNW 12 15 1019.7 - 0.6 - Cloudy 10 - - - -
19/11:36am 11.5 W 13 18 1020.1 - 0.6 - Partly cloudy 10 - - - -
19/11:30am 11.5 W 14 18 1020.1 - 0.6 - Partly cloudy 7 - - - -
19/11:19am 11.8 W 15 21 1020.2 - 0.4 - Partly cloudy 5 - - - -
19/11:00am 14.1 WSW 10 16 1019.9 - 0.0 - Partly cloudy 10 - - - -
19/10:30am 13.9 SW 10 15 1019.9 - 0.0 - Cloudy 10 - - - -
19/10:00am 14.0 SSW 12 16 1020.0 - 0.0 - Partly cloudy 10 - - - -
19/09:30am 13.3 SW 14 17 1020.0 - 0.0 - Partly cloudy 10 - - - -
19/09:00am 12.0 S 10 14 1019.9 - 0.4 - Mostly cloudy 10 - - - -
19/08:30am 13.0 SW 9 15 1019.6 - 0.4 - Partly cloudy 10 - - - -
19/08:00am 11.3 S 5 8 1019.5 - 0.4 - Cloudy 10 - - - -
19/07:30am 11.6 S 9 16 1019.2 - 0.4 - Partly cloudy 10 - - - -
19/07:00am 11.7 SSW 10 15 1018.9 - 0.4 - Partly cloudy 10 - - - -
19/06:30am 11.4 S 8 14 1018.7 - 0.4 - Partly cloudy 10 - - - -
19/06:00am 11.8 SW 12 16 1018.7 - 0.4 - Mostly cloudy 10 - - - -
19/05:30am 11.4 SW 8 12 1018.6 - 0.4 - Partly cloudy 10 - - - -
19/05:00am 10.9 WSW 12 18 1018.6 - 0.4 - Partly cloudy 9 - - - -
19/04:30am 11.6 WSW 10 18 1018.6 - 0.4 - Partly cloudy 10 - - - -
19/04:00am 10.1 SW 5 6 1018.5 - 0.2 - Partly cloudy 10 - - - -
19/03:30am 10.9 SSW 17 23 1018.7 - 0.2 - Partly cloudy 10 - - - -
19/03:24am 10.9 SSW 18 23 1018.7 - 0.2 - Partly cloudy 10 - - - -
19/03:00am 11.1 SW 7 9 1018.8 - 0.2 - Cloudy 10 - - - -
19/02:30am 10.8 SW 14 19 1019.3 - 0.2 - Partly cloudy 10 - - - -
19/02:08am 12.0 WSW 15 25 1019.1 - 0.2 - Partly cloudy 10 - - - -
19/02:00am 12.5 WSW 12 16 1019.0 - 0.2 - Partly cloudy 10 - - - -
19/01:30am 12.4 SW 10 14 1019.1 - 0.2 - Partly cloudy 10 - - - -
19/01:00am 11.7 SSW 14 17 1019.1 - 0.2 - Partly cloudy 10 - - - -
19/12:30am 11.0 SSW 9 13 1019.3 - 0.2 - Partly cloudy 10 - - - -
19/12:00am 11.6 SSW 11 17 1019.2 - 0.2 - Cloudy 10 - - - -
 
Date/Time
EST
Temp

°C
Wind Pressure Rain
since 9am
mm
Weather Cloud Vis
km
Sea
Height
m
Swell
Dir
 
Speed
knots
Gust
knots
hPa Trend Height
m
Period
s
Dir
18/11:30pm 12.1 SSW 16 20 1019.3 - 0.2 - Partly cloudy 10 - - - -
18/11:24pm 12.1 SW 15 26 1019.2 - 0.2 - Partly cloudy 10 - - - -
18/11:00pm 13.0 SW 11 16 1019.2 - 0.2 - Partly cloudy 10 - - - -
18/10:30pm 12.6 SW 14 19 1019.3 - 0.2 - Partly cloudy 10 - - - -
18/10:00pm 12.9 SW 15 20 1019.2 - 0.2 - Partly cloudy 10 - - - -
18/09:30pm 13.0 SW 15 21 1019.2 - 0.2 - Partly cloudy 10 - - - -
18/09:00pm 12.8 SW 16 20 1019.0 - 0.2 - Mostly cloudy 10 - - - -
18/08:30pm 13.0 SW 15 20 1018.7 - 0.2 - Partly cloudy 10 - - - -
18/08:00pm 13.3 SW 17 22 1018.5 - 0.2 - Partly cloudy 10 - - - -
18/07:30pm 13.2 SW 16 22 1018.4 - 0.2 - Partly cloudy 10 - - - -
18/07:00pm 13.1 SW 17 21 1018.2 - 0.2 - Partly cloudy 10 - - - -
18/06:30pm 13.6 SW 14 21 1017.9 - 0.2 - Partly cloudy 10 - - - -
18/06:00pm 13.0 SW 18 24 1017.8 - 0.2 - Partly cloudy 10 - - - -
18/05:30pm 13.4 SW 17 23 1017.5 - 0.2 - Partly cloudy 10 - - - -
18/05:00pm 13.5 SW 19 27 1017.1 - 0.2 - Partly cloudy 10 - - - -
18/04:30pm 13.7 SW 19 29 1017.0 - 0.2 - Partly cloudy 10 - - - -
18/04:00pm 14.7 WSW 18 27 1016.5 - 0.2 - Partly cloudy 10 - - - -
18/03:31pm 15.3 SW 20 30 1016.3 - 0.2 - Partly cloudy 10 - - - -
18/03:30pm 15.3 SW 21 30 1016.3 - 0.2 - Partly cloudy 10 - - - -
18/03:00pm 14.7 SW 21 30 1016.1 - 0.2 - Cloudy 10 - - - -
18/02:53pm 14.8 SW 18 28 1015.9 - 0.2 - Partly cloudy 10 - - - -
18/02:30pm 14.9 SW 21 29 1015.8 - 0.2 - Partly cloudy 10 - - - -
18/02:09pm 14.5 SW 20 30 1015.6 - 0.2 - Partly cloudy 10 - - - -
18/02:00pm 15.3 SSW 23 29 1015.6 - 0.2 - Partly cloudy 10 - - - -
18/01:33pm 16.5 SW 21 31 1015.4 - 0.2 - Partly cloudy 10 - - - -
18/01:30pm 17.0 SW 21 28 1015.3 - 0.2 - Partly cloudy 10 - - - -
18/01:01pm 16.4 WSW 19 29 1015.3 - 0.2 - Partly cloudy 10 - - - -
18/01:00pm 16.5 WSW 19 27 1015.3 - 0.2 - Partly cloudy 10 - - - -
18/12:30pm 16.1 SW 20 28 1015.3 - 0.2 - Partly cloudy 10 - - - -
18/12:00pm 15.7 WSW 21 30 1015.1 - 0.2 - Partly cloudy 10 - - - -
18/11:30am 15.8 SW 20 30 1015.0 - 0.2 - Partly cloudy 10 - - - -
18/11:01am 15.8 SW 19 30 1015.0 - 0.2 - Partly cloudy 10 - - - -
18/11:00am 15.8 SW 19 26 1014.9 - 0.2 - Partly cloudy 10 - - - -
18/10:30am 15.2 WSW 20 27 1014.7 - 0.0 - Partly cloudy 10 - - - -
18/10:02am 15.1 SW 18 28 1014.1 - 0.0 - Partly cloudy 10 - - - -
18/10:00am 15.2 SW 18 26 1014.1 - 0.0 - Partly cloudy 10 - - - -
18/09:30am 13.6 SW 17 21 1014.1 - 0.0 - Partly cloudy 10 - - - -
18/09:00am 12.8 SW 19 27 1013.6 - 3.8 - Cloudy 10 - - - -
18/08:41am 12.2 SW 17 27 1014.0 - 3.8 - Partly cloudy 10 - - - -
18/08:30am 12.2 SW 18 24 1014.0 - 3.8 - Partly cloudy 10 - - - -
18/08:13am 12.0 SW 19 26 1013.7 - 3.6 - Partly cloudy 10 - - - -
18/08:03am 12.4 SW 20 29 1013.2 - 3.6 - Partly cloudy 5 - - - -
18/08:00am 12.2 SW 20 29 1013.2 - 3.2 - Partly cloudy 6 - - - -
18/07:52am 12.4 SW 20 28 1013.0 - 2.4 - Partly cloudy 10 - - - -
18/07:37am 13.0 SW 20 32 1012.6 - 2.4 - Partly cloudy 7 - - - -
18/07:34am 13.1 SW 19 32 1012.6 - 2.2 - Partly cloudy 8 - - - -
18/07:30am 13.2 WSW 19 27 1012.5 - 2.0 - Partly cloudy 7 - - - -
18/07:16am 13.2 WSW 17 25 1012.4 - 1.2 - Partly cloudy 5 - - - -
18/07:11am 13.4 SW 18 25 1012.4 - 0.6 - Partly cloudy 10 - - - -
18/07:07am 14.5 W 21 25 1012.4 - 0.6 - Partly cloudy 10 - - - -
18/07:04am 15.4 NW 17 21 1011.5 - 0.6 - Partly cloudy 10 - - - -
18/07:00am 15.3 NW 17 22 1011.5 - 0.6 - Partly cloudy 10 - - - -
18/06:53am 15.2 NW 18 23 1011.5 - 0.6 - Partly cloudy 10 - - - -
18/06:30am 15.2 NW 18 21 1011.7 - 0.6 - Partly cloudy 10 - - - -
18/06:26am 15.1 NW 18 22 1011.7 - 0.6 - Partly cloudy 10 - - - -
18/06:07am 14.8 NW 20 25 1011.9 - 0.4 - Partly cloudy 5 - - - -
18/06:06am 14.8 NW 20 25 1011.9 - 0.4 - Partly cloudy 5 - - - -
18/06:00am 15.0 NW 19 24 1011.9 - 0.4 - Cloudy 10 - - - -
18/05:30am 15.1 NW 17 20 1012.2 - 0.4 - Partly cloudy 10 - - - -
18/05:00am 14.7 NW 15 19 1012.4 - 0.4 - Partly cloudy 10 - - - -
18/04:53am 14.4 NW 15 17 1012.4 - 0.4 - Partly cloudy 10 - - - -
18/04:30am 14.2 NW 20 26 1012.9 - 0.0 - Partly cloudy 5 - - - -
18/04:29am 14.5 NW 19 26 1013.0 - 0.0 - Partly cloudy 5 - - - -

Other Formats:

Comma delimited format used in spreadsheet applications
http://www.bom.gov.au/fwo/IDV60701/IDV60701.94850.axf

JavaScript Object Notation format (JSON) in row-major order
http://www.bom.gov.au/fwo/IDV60701/IDV60701.94850.json